createdAt,value
2022-10-08T00:01:13.996Z,12.81
2022-10-08T00:06:19.376Z,12.84
2022-10-08T00:11:41.394Z,12.89
2022-10-08T00:16:45.427Z,12.92
2022-10-08T00:21:57.331Z,12.94
2022-10-08T00:27:00.395Z,12.98
2022-10-08T00:32:04.697Z,13.00
2022-10-08T00:37:06.394Z,13.02
2022-10-08T00:42:12.545Z,13.05
2022-10-08T00:47:37.980Z,13.06
2022-10-08T00:52:44.018Z,13.08
2022-10-08T00:57:49.381Z,13.10
2022-10-08T01:02:53.037Z,13.10
2022-10-08T01:08:02.927Z,13.09
2022-10-08T01:13:21.744Z,12.99
2022-10-08T01:18:29.560Z,12.81
2022-10-08T01:24:03.205Z,12.65
2022-10-08T01:29:15.918Z,12.51
2022-10-08T01:34:30.900Z,12.41
2022-10-08T01:39:36.785Z,12.33
2022-10-08T01:44:54.368Z,12.28
2022-10-08T01:50:04.070Z,12.21
2022-10-08T01:55:12.073Z,12.16
2022-10-08T02:00:15.227Z,12.12
2022-10-08T02:05:19.384Z,12.08
2022-10-08T02:10:25.015Z,12.02
2022-10-08T02:15:41.231Z,12.00
2022-10-08T02:20:45.526Z,11.97
2022-10-08T02:25:54.640Z,11.95
2022-10-08T02:31:02.030Z,11.94
2022-10-08T02:36:06.319Z,11.92
2022-10-08T02:41:08.938Z,11.90
2022-10-08T02:46:18.681Z,11.89
2022-10-08T02:51:28.128Z,11.87
2022-10-08T02:56:38.903Z,11.83
2022-10-08T03:01:49.431Z,11.80
2022-10-08T03:06:59.359Z,11.75
2022-10-08T03:12:08.771Z,11.75
2022-10-08T03:17:13.505Z,11.71
2022-10-08T03:22:15.200Z,11.70
2022-10-08T03:27:17.929Z,11.68
2022-10-08T03:32:24.422Z,11.68
2022-10-08T03:37:31.024Z,11.71
2022-10-08T03:42:32.722Z,11.77
2022-10-08T03:47:36.839Z,11.77
2022-10-08T03:52:43.220Z,11.75
2022-10-08T03:57:47.472Z,11.71
2022-10-08T04:02:51.114Z,11.69
2022-10-08T04:07:55.497Z,11.63
2022-10-08T04:13:00.969Z,11.50
2022-10-08T04:18:03.577Z,11.40
2022-10-08T04:23:07.649Z,11.32
2022-10-08T04:28:11.659Z,11.24
2022-10-08T04:33:13.452Z,11.20
2022-10-08T04:38:15.182Z,11.19
2022-10-08T04:43:20.223Z,11.17
2022-10-08T04:48:24.281Z,11.17
2022-10-08T04:53:32.530Z,11.12
2022-10-08T04:58:34.556Z,11.09
2022-10-08T05:03:42.105Z,11.02
2022-10-08T05:08:45.033Z,10.96
2022-10-08T05:13:52.383Z,10.90
2022-10-08T05:18:56.834Z,10.86
2022-10-08T05:24:01.326Z,10.82
2022-10-08T05:29:07.623Z,10.78
2022-10-08T05:34:09.681Z,10.74
2022-10-08T05:39:17.184Z,10.68
2022-10-08T05:44:20.507Z,10.64
2022-10-08T05:49:25.316Z,10.60
2022-10-08T05:54:29.182Z,10.57
2022-10-08T05:59:35.805Z,10.54
2022-10-08T06:04:40.505Z,10.50
2022-10-08T06:09:51.263Z,10.47
2022-10-08T06:14:55.321Z,10.56
2022-10-08T06:20:00.179Z,10.60
2022-10-08T06:25:02.473Z,10.62
2022-10-08T06:30:07.276Z,10.64
2022-10-08T06:35:16.950Z,10.64
2022-10-08T06:40:20.912Z,10.67
2022-10-08T06:45:25.742Z,10.69
2022-10-08T06:50:29.457Z,10.73
2022-10-08T06:55:35.925Z,10.78
2022-10-08T07:00:41.712Z,10.84
2022-10-08T07:06:03.390Z,10.93
2022-10-08T07:11:05.147Z,11.10
2022-10-08T07:16:20.728Z,11.39
2022-10-08T07:21:30.564Z,11.39
2022-10-08T07:26:35.380Z,11.24
2022-10-08T07:31:41.874Z,11.17
2022-10-08T07:36:43.830Z,11.36
2022-10-08T07:41:48.135Z,11.68
2022-10-08T07:46:51.916Z,12.00
2022-10-08T07:51:56.865Z,12.04
2022-10-08T07:57:06.747Z,12.02
2022-10-08T08:02:11.140Z,11.94
2022-10-08T08:07:12.942Z,12.02
2022-10-08T08:12:20.396Z,12.07
2022-10-08T08:17:23.929Z,12.24
2022-10-08T08:22:27.896Z,12.36
2022-10-08T08:27:32.911Z,12.53
2022-10-08T08:32:39.444Z,12.67
2022-10-08T08:37:43.782Z,12.75
2022-10-08T08:42:56.772Z,12.92
2022-10-08T08:48:23.963Z,13.02
2022-10-08T08:53:28.162Z,13.22
2022-10-08T08:59:04.204Z,13.39
2022-10-08T09:04:21.943Z,12.94
2022-10-08T09:09:24.455Z,12.66
2022-10-08T09:14:37.517Z,12.77
2022-10-08T09:19:40.762Z,12.86
2022-10-08T09:24:44.860Z,12.97
2022-10-08T09:29:47.594Z,12.99
2022-10-08T09:34:51.876Z,12.89
2022-10-08T09:40:29.221Z,13.26
2022-10-08T09:45:31.039Z,13.73
2022-10-08T09:50:36.822Z,13.62
2022-10-08T09:55:42.153Z,13.38
2022-10-08T10:00:45.015Z,13.32
2022-10-08T10:05:51.793Z,13.46
2022-10-08T10:10:54.672Z,13.53
2022-10-08T10:16:03.039Z,13.59
2022-10-08T10:21:13.450Z,13.76
2022-10-08T10:26:23.502Z,13.83
2022-10-08T10:31:27.477Z,14.28
2022-10-08T10:36:35.549Z,14.60
2022-10-08T10:41:47.096Z,14.60
2022-10-08T10:46:57.045Z,14.53
2022-10-08T10:52:36.084Z,14.31
2022-10-08T10:57:56.015Z,13.89
2022-10-08T11:03:10.065Z,13.65
2022-10-08T11:08:39.417Z,13.47
2022-10-08T11:14:12.659Z,13.60
2022-10-08T11:19:49.595Z,13.42
2022-10-08T11:25:19.354Z,14.71
2022-10-08T11:30:43.261Z,16.11
2022-10-08T11:35:49.980Z,15.76
2022-10-08T11:40:56.632Z,15.03
2022-10-08T11:46:22.445Z,15.33
2022-10-08T11:51:25.007Z,15.81
2022-10-08T11:56:50.113Z,17.00
2022-10-08T12:01:55.721Z,18.28
2022-10-08T12:07:04.040Z,18.90
2022-10-08T12:12:13.489Z,18.63
2022-10-08T12:17:15.936Z,17.30
2022-10-08T12:22:24.972Z,17.14
2022-10-08T12:27:40.101Z,16.27
2022-10-08T12:32:42.789Z,18.00
2022-10-08T12:38:14.694Z,17.11
2022-10-08T12:43:47.800Z,18.78
2022-10-08T12:49:00.769Z,20.91
2022-10-08T12:54:04.659Z,18.93
2022-10-08T12:59:08.081Z,20.75
2022-10-08T13:04:26.123Z,22.01
2022-10-08T13:09:36.564Z,22.67
2022-10-08T13:14:39.984Z,22.73
2022-10-08T13:19:44.000Z,23.31
2022-10-08T13:24:51.391Z,21.71
2022-10-08T13:29:55.072Z,19.26
2022-10-08T13:35:01.050Z,19.98
2022-10-08T13:40:06.251Z,22.17
2022-10-08T13:45:18.009Z,22.42
2022-10-08T13:50:21.047Z,22.93
2022-10-08T13:55:29.038Z,23.31
2022-10-08T14:00:33.728Z,23.84
2022-10-08T14:05:47.566Z,24.44
2022-10-08T14:10:49.524Z,24.04
2022-10-08T14:15:53.534Z,24.54
2022-10-08T14:20:58.617Z,24.79
2022-10-08T14:26:02.786Z,24.26
2022-10-08T14:31:08.480Z,24.42
2022-10-08T14:36:21.208Z,24.97
2022-10-08T14:41:26.012Z,25.29
2022-10-08T14:46:30.151Z,25.10
2022-10-08T14:51:38.637Z,23.42
2022-10-08T14:56:43.151Z,22.82
2022-10-08T15:01:47.040Z,21.84
2022-10-08T15:06:51.430Z,20.68
2022-10-08T15:11:55.945Z,19.96
2022-10-08T15:16:59.444Z,19.32
2022-10-08T15:22:05.529Z,19.17
2022-10-08T15:27:07.282Z,18.85
2022-10-08T15:32:15.956Z,18.18
2022-10-08T15:37:20.028Z,17.81
2022-10-08T15:42:25.985Z,17.64
2022-10-08T15:47:31.417Z,17.52
2022-10-08T15:52:34.486Z,17.32
2022-10-08T15:57:38.722Z,17.28
2022-10-08T16:02:43.935Z,16.94
2022-10-08T16:07:48.761Z,16.58
2022-10-08T16:12:53.487Z,16.44
2022-10-08T16:17:55.257Z,16.28
2022-10-08T16:22:59.514Z,16.01
2022-10-08T16:28:03.624Z,15.86
2022-10-08T16:33:05.395Z,15.71
2022-10-08T16:38:07.137Z,15.53
2022-10-08T16:43:13.103Z,15.34
2022-10-08T16:48:21.078Z,15.19
2022-10-08T16:53:27.440Z,15.04
2022-10-08T16:58:29.146Z,14.88
2022-10-08T17:03:30.938Z,14.69
2022-10-08T17:08:35.429Z,14.56
2022-10-08T17:13:50.252Z,14.39
2022-10-08T17:18:55.878Z,14.25
2022-10-08T17:24:01.613Z,14.11
2022-10-08T17:29:11.563Z,13.98
2022-10-08T17:34:13.286Z,13.85
2022-10-08T17:39:21.999Z,13.70
2022-10-08T17:44:28.824Z,13.53
2022-10-08T17:49:30.757Z,13.86
2022-10-08T17:54:35.098Z,13.42
2022-10-08T17:59:44.426Z,13.22
2022-10-08T18:04:51.815Z,13.10
2022-10-08T18:09:58.096Z,12.93
2022-10-08T18:15:05.849Z,12.82
2022-10-08T18:20:15.142Z,12.78
2022-10-08T18:25:21.589Z,12.71
2022-10-08T18:30:23.341Z,12.54
2022-10-08T18:35:29.494Z,12.50
2022-10-08T18:40:34.030Z,12.51
2022-10-08T18:45:36.185Z,12.41
2022-10-08T18:50:42.659Z,12.38
2022-10-08T18:55:49.783Z,12.37
2022-10-08T19:00:57.478Z,12.22
2022-10-08T19:06:06.983Z,12.14
2022-10-08T19:11:17.539Z,12.09
2022-10-08T19:16:23.722Z,12.00
2022-10-08T19:21:26.278Z,11.89
2022-10-08T19:26:34.883Z,11.87
2022-10-08T19:31:36.683Z,11.72
2022-10-08T19:36:38.700Z,11.58
2022-10-08T19:41:46.866Z,11.44
2022-10-08T19:46:49.254Z,11.39
2022-10-08T19:51:54.188Z,11.37
2022-10-08T19:56:59.461Z,11.30
2022-10-08T20:02:03.668Z,11.16
2022-10-08T20:07:10.334Z,11.11
2022-10-08T20:12:12.017Z,11.00
2022-10-08T20:17:14.486Z,10.93
2022-10-08T20:22:17.247Z,10.87
2022-10-08T20:27:20.490Z,10.92
2022-10-08T20:32:24.612Z,10.85
2022-10-08T20:37:31.862Z,10.82
2022-10-08T20:42:37.046Z,10.75
2022-10-08T20:47:38.884Z,10.75
2022-10-08T20:52:41.080Z,10.69
2022-10-08T20:57:45.322Z,10.63
2022-10-08T21:02:49.603Z,10.60
2022-10-08T21:07:51.559Z,10.59
2022-10-08T21:12:53.231Z,10.55
2022-10-08T21:17:57.458Z,10.45
2022-10-08T21:23:04.607Z,10.48
2022-10-08T21:28:06.345Z,10.39
2022-10-08T21:33:09.455Z,10.34
2022-10-08T21:38:17.938Z,10.29
2022-10-08T21:43:22.050Z,10.20
2022-10-08T21:48:25.043Z,10.09
2022-10-08T21:53:34.780Z,10.07
2022-10-08T21:58:48.860Z,10.00
2022-10-08T22:03:58.744Z,9.89
2022-10-08T22:09:00.651Z,9.93
2022-10-08T22:14:05.919Z,9.84
2022-10-08T22:19:07.795Z,9.76
2022-10-08T22:24:11.698Z,9.74
2022-10-08T22:29:14.176Z,9.73
2022-10-08T22:34:17.950Z,9.68
2022-10-08T22:39:19.664Z,9.66
2022-10-08T22:44:23.665Z,9.60
2022-10-08T22:49:25.411Z,9.53
2022-10-08T22:54:27.188Z,9.54
2022-10-08T22:59:33.676Z,9.49
2022-10-08T23:04:37.592Z,9.47
2022-10-08T23:09:42.170Z,9.41
2022-10-08T23:14:43.884Z,9.37
2022-10-08T23:19:45.554Z,9.35
2022-10-08T23:24:53.513Z,9.28
2022-10-08T23:29:57.528Z,9.27
2022-10-08T23:34:59.231Z,9.19
2022-10-08T23:40:03.680Z,9.16
2022-10-08T23:45:10.673Z,9.07
2022-10-08T23:50:27.416Z,9.01
2022-10-08T23:55:29.152Z,8.98
